createdAt,value
2018-08-06T04:18:22.525Z,4.50
2018-08-06T04:23:20.221Z,3.80
2018-08-06T04:28:20.029Z,3.90
2018-08-06T04:33:17.746Z,4.47
2018-08-06T04:38:15.444Z,4.95
2018-08-06T04:43:13.124Z,4.40
2018-08-06T04:48:10.812Z,4.37
2018-08-06T04:53:08.556Z,5.30
2018-08-06T04:58:06.248Z,4.90
2018-08-06T05:03:04.065Z,5.00
2018-08-06T05:08:01.773Z,4.85
2018-08-06T05:12:59.456Z,5.17
2018-08-06T05:17:57.198Z,4.50
2018-08-06T05:22:54.877Z,4.78
2018-08-06T05:27:52.614Z,4.20
2018-08-06T05:32:50.284Z,5.35
2018-08-06T05:37:47.896Z,5.03
2018-08-06T05:42:45.629Z,5.00
2018-08-06T05:47:43.321Z,4.53
2018-08-06T05:52:41.212Z,5.47
2018-08-06T05:57:39.552Z,4.87
2018-08-06T06:02:37.360Z,5.12
2018-08-06T06:07:35.112Z,4.60
2018-08-06T06:12:33.048Z,5.22
2018-08-06T06:17:30.709Z,5.15
2018-08-06T06:22:28.440Z,4.17
2018-08-06T06:27:26.196Z,4.75
2018-08-06T06:32:23.877Z,4.58
2018-08-06T06:37:21.589Z,4.25
2018-08-06T06:42:19.312Z,3.98
2018-08-06T06:47:17.106Z,4.10
2018-08-06T06:52:14.832Z,4.70
2018-08-06T06:57:13.801Z,4.20
2018-08-06T07:02:11.820Z,4.25
2018-08-06T07:07:09.537Z,3.90
2018-08-06T07:12:07.272Z,4.30
2018-08-06T07:17:04.976Z,4.55
2018-08-06T07:22:02.704Z,4.22
2018-08-06T07:27:00.485Z,4.25
2018-08-06T07:31:58.164Z,4.17
2018-08-06T07:36:55.881Z,4.25
2018-08-06T07:41:53.617Z,3.90
2018-08-06T07:46:51.380Z,4.05
2018-08-06T07:51:49.149Z,4.08
2018-08-06T07:56:46.924Z,4.30
2018-08-06T08:01:44.697Z,4.12
2018-08-06T08:06:42.476Z,4.20
2018-08-06T08:11:40.428Z,4.28
2018-08-06T08:16:38.134Z,4.12
2018-08-06T08:21:35.992Z,4.10
2018-08-06T08:26:33.726Z,4.58
2018-08-06T08:31:31.429Z,4.17
2018-08-06T08:36:29.189Z,4.37
2018-08-06T08:41:26.954Z,4.72
2018-08-06T08:46:24.705Z,4.17
2018-08-06T08:51:22.488Z,4.28
2018-08-06T08:56:20.178Z,4.45
2018-08-06T09:01:18.010Z,4.53
2018-08-06T09:06:15.813Z,3.62
2018-08-06T09:11:13.593Z,4.10
2018-08-06T09:16:11.329Z,3.98
2018-08-06T09:21:09.249Z,3.77
2018-08-06T09:26:07.065Z,3.77
2018-08-06T09:31:04.953Z,4.50
2018-08-06T09:36:02.700Z,4.08
2018-08-06T09:41:00.413Z,4.92
2018-08-06T09:45:58.158Z,4.25
2018-08-06T09:50:55.954Z,4.12
2018-08-06T09:55:53.693Z,4.00
2018-08-06T10:00:56.952Z,4.15
2018-08-06T10:05:54.965Z,4.20
2018-08-06T10:10:52.417Z,4.25
2018-08-06T10:15:50.165Z,4.00
2018-08-06T10:20:47.864Z,4.53
2018-08-06T10:25:45.597Z,4.50
2018-08-06T10:30:43.513Z,4.42
2018-08-06T10:35:41.137Z,4.90
2018-08-06T10:40:38.841Z,3.83
2018-08-06T10:45:36.513Z,4.58
2018-08-06T10:50:34.253Z,4.17
2018-08-06T10:55:31.985Z,3.83
2018-08-06T11:00:29.696Z,4.25
2018-08-06T11:05:27.413Z,4.53
2018-08-06T11:10:25.144Z,4.40
2018-08-06T11:15:24.215Z,3.62
2018-08-06T11:20:22.551Z,4.10
2018-08-06T11:25:21.553Z,4.10
2018-08-06T11:30:20.482Z,4.42
2018-08-06T11:35:18.290Z,4.70
2018-08-06T11:40:16.785Z,4.83
2018-08-06T11:45:17.024Z,4.58
2018-08-06T11:50:14.777Z,4.50
2018-08-06T11:55:12.537Z,4.70
2018-08-06T12:00:14.294Z,4.70
2018-08-06T12:05:12.002Z,5.30
2018-08-06T12:10:12.685Z,5.35
2018-08-06T12:15:10.547Z,5.60
2018-08-06T12:20:11.463Z,5.25
2018-08-06T12:25:10.257Z,5.85
2018-08-06T12:30:11.693Z,5.53
2018-08-06T12:35:09.425Z,5.95
2018-08-06T12:40:10.125Z,5.72
2018-08-06T12:45:08.286Z,6.00
2018-08-06T12:50:07.358Z,5.20
2018-08-06T12:55:05.862Z,5.75
2018-08-06T13:00:05.277Z,5.72
2018-08-06T13:05:03.145Z,6.00
2018-08-06T13:10:00.875Z,5.62
2018-08-06T13:14:58.653Z,6.22
2018-08-06T13:19:56.410Z,6.75
2018-08-06T13:24:54.261Z,6.37
2018-08-06T13:29:52.053Z,6.00
2018-08-06T13:34:49.805Z,6.30
2018-08-06T13:39:47.516Z,5.92
2018-08-06T13:44:45.370Z,6.00
2018-08-06T13:49:43.158Z,5.75
2018-08-06T13:54:40.937Z,6.00
2018-08-06T13:59:38.770Z,6.50
2018-08-06T14:04:36.457Z,5.80
2018-08-06T14:09:34.177Z,6.53
2018-08-06T14:14:31.876Z,6.17
2018-08-06T14:19:29.585Z,5.97
2018-08-06T14:24:27.298Z,6.35
2018-08-06T14:29:25.000Z,6.25
2018-08-06T14:34:22.795Z,5.72
2018-08-06T14:39:20.445Z,5.10
2018-08-06T14:44:18.233Z,5.45
2018-08-06T14:49:15.945Z,5.60
2018-08-06T14:54:13.644Z,5.78
2018-08-06T14:59:11.411Z,6.08
2018-08-06T15:04:09.245Z,5.92
2018-08-06T15:09:09.040Z,5.17
2018-08-06T15:14:06.745Z,5.28
2018-08-06T15:19:05.080Z,5.40
2018-08-06T15:24:02.874Z,5.42
2018-08-06T15:29:00.589Z,5.75
2018-08-06T15:33:58.347Z,5.60
2018-08-06T15:38:56.137Z,5.65
2018-08-06T15:43:53.833Z,5.40
2018-08-06T15:48:51.541Z,5.95
2018-08-06T15:53:49.297Z,5.62
2018-08-06T15:58:47.046Z,5.70
2018-08-06T16:03:44.917Z,6.75
2018-08-06T16:08:42.637Z,6.08
2018-08-06T16:13:40.321Z,6.17
2018-08-06T16:18:38.025Z,6.37
2018-08-06T16:23:36.065Z,6.30
2018-08-06T16:28:33.800Z,5.45
2018-08-06T16:33:31.525Z,7.10
2018-08-06T16:38:29.244Z,8.35
2018-08-06T16:43:26.982Z,6.28
2018-08-06T16:48:24.766Z,6.97
2018-08-06T16:53:22.519Z,6.67
2018-08-06T16:58:20.261Z,6.55
2018-08-06T17:03:17.989Z,5.67
2018-08-06T17:08:15.717Z,6.35
2018-08-06T17:13:13.456Z,6.92
2018-08-06T17:18:11.199Z,6.42
2018-08-06T17:23:08.897Z,6.10
2018-08-06T17:28:06.709Z,6.03
2018-08-06T17:33:04.595Z,6.10
2018-08-06T17:38:02.436Z,6.95
2018-08-06T17:43:00.156Z,6.47
2018-08-06T17:47:57.888Z,7.33
2018-08-06T17:52:55.593Z,6.30
2018-08-06T17:57:53.317Z,6.40
2018-08-06T18:02:51.103Z,6.67
2018-08-06T18:07:48.832Z,6.40
2018-08-06T18:12:47.025Z,6.53
2018-08-06T18:17:44.796Z,6.83
2018-08-06T18:22:42.624Z,5.95
2018-08-06T18:27:40.396Z,6.40
2018-08-06T18:32:38.009Z,6.15
2018-08-06T18:37:35.786Z,6.60
2018-08-06T18:42:33.505Z,7.83
2018-08-06T18:47:31.218Z,6.50
2018-08-06T18:52:28.989Z,6.67
2018-08-06T18:57:26.685Z,6.90
2018-08-06T19:02:24.401Z,6.65
2018-08-06T19:07:22.142Z,7.60
2018-08-06T19:12:25.637Z,6.78
2018-08-06T19:17:23.333Z,8.85
2018-08-06T19:22:21.049Z,10.05
2018-08-06T19:27:18.786Z,8.55
2018-08-06T19:32:16.637Z,7.67
2018-08-06T19:37:19.857Z,7.87
2018-08-06T19:42:17.721Z,7.75
2018-08-06T19:47:15.561Z,7.62
2018-08-06T19:52:13.666Z,7.28
2018-08-06T19:57:11.629Z,7.80
2018-08-06T20:02:10.013Z,7.80
2018-08-06T20:07:08.267Z,7.28
2018-08-06T20:12:06.589Z,8.10
2018-08-06T20:17:05.334Z,8.40
2018-08-06T20:22:03.878Z,7.95
